Time;durP1;ratioP1;P1;durP2;ratioP2;P2;SDS_P1;SDS_P2;PMS_P1;PMS_P2;Temp;Humidity;BMP_temperature;BMP_pressure;BME280_temperature;BME280_humidity;BME280_pressure;Samples;Min_cycle;Max_cycle;Signal;HPM_P1;HPM_P2
2023/09/22 00:00:59;;;;;;;0.20;0.20;;;;;;;16.27;92.75;100406.19;5082090;28;20040;-69
2023/09/22 00:03:26;;;;;;;0.20;0.20;;;;;;;16.23;93.18;100402.41;5064235;28;20441;-69
2023/09/22 00:05:52;;;;;;;0.20;0.20;;;;;;;16.24;93.35;100398.50;5064114;28;20510;-69
2023/09/22 00:08:19;;;;;;;0.20;0.20;;;;;;;16.23;93.24;100400.44;5081479;28;20071;-69
2023/09/22 00:10:46;;;;;;;0.20;0.20;;;;;;;16.22;93.53;100407.06;5046987;28;20055;-68
2023/09/22 00:13:13;;;;;;;0.20;0.20;;;;;;;16.23;93.58;100405.16;5078098;28;20063;-69
2023/09/22 00:15:40;;;;;;;0.20;0.20;;;;;;;16.22;93.58;100401.56;5065990;28;20178;-69
2023/09/22 00:18:08;;;;;;;0.20;0.20;;;;;;;16.22;93.36;100417.31;5082274;28;20074;-68
2023/09/22 00:20:34;;;;;;;;;;;;;;;16.20;93.95;100411.28;5066164;28;20151;-68
2023/09/22 00:23:00;;;;;;;0.20;0.20;;;;;;;16.18;93.54;100414.31;5084772;28;20538;-68
2023/09/22 00:25:26;;;;;;;0.20;0.20;;;;;;;16.18;93.76;100419.84;5067394;28;20426;-68
2023/09/22 00:27:53;;;;;;;0.20;0.20;;;;;;;16.15;93.55;100414.91;5082941;28;20044;-69
2023/09/22 00:30:20;;;;;;;0.20;0.20;;;;;;;16.15;93.87;100420.44;5081144;28;20185;-70
2023/09/22 00:32:46;;;;;;;0.20;0.20;;;;;;;16.15;93.75;100424.00;5047080;28;20039;-68
2023/09/22 00:35:14;;;;;;;0.20;0.20;;;;;;;16.10;94.04;100415.00;5045577;28;20048;-70
2023/09/22 00:37:41;;;;;;;0.20;0.20;;;;;;;16.20;94.01;100427.81;5084466;28;20036;-69
2023/09/22 00:40:17;;;;;;;0.20;0.20;;;;;;;16.26;93.93;100426.63;5063765;28;20537;-70
2023/09/22 00:42:45;;;;;;;0.20;0.20;;;;;;;16.29;93.48;100426.84;5047367;28;20055;-69
2023/09/22 00:45:14;;;;;;;0.20;0.20;;;;;;;16.29;93.42;100412.22;5082280;28;20044;-68
2023/09/22 00:47:41;;;;;;;0.20;0.20;;;;;;;16.29;93.43;100412.22;5064865;28;20067;-69
2023/09/22 00:50:11;;;;;;;0.20;0.20;;;;;;;16.12;93.75;100390.69;5042828;28;20059;-68
2023/09/22 00:52:41;;;;;;;0.20;0.20;;;;;;;16.25;93.40;100430.50;5047646;28;20039;-69
2023/09/22 00:55:08;;;;;;;0.30;0.30;;;;;;;16.24;93.58;100424.19;5080222;28;20522;-68
2023/09/22 00:57:34;;;;;;;0.20;0.20;;;;;;;16.26;93.68;100416.41;5040879;28;20079;-68
2023/09/22 01:00:01;;;;;;;0.20;0.20;;;;;;;16.29;93.41;100414.97;5081276;28;20334;-68
2023/09/22 01:02:29;;;;;;;0.30;0.30;;;;;;;16.31;93.00;100415.50;5081318;28;20048;-68
2023/09/22 01:04:55;;;;;;;0.20;0.20;;;;;;;16.36;93.14;100417.38;5081028;28;20059;-69
2023/09/22 01:07:21;;;;;;;0.22;0.22;;;;;;;16.45;92.69;100412.81;5063800;28;20044;-68
2023/09/22 01:09:49;;;;;;;0.20;0.20;;;;;;;16.54;92.47;100410.22;5081115;28;20048;-68
2023/09/22 01:12:15;;;;;;;0.20;0.20;;;;;;;16.58;91.69;100405.72;5080792;28;20051;-68
2023/09/22 01:14:43;;;;;;;0.25;0.25;;;;;;;16.61;91.48;100409.81;5065960;28;20146;-67
2023/09/22 01:17:10;;;;;;;0.20;0.20;;;;;;;16.59;91.32;100410.94;5062987;28;20143;-68
2023/09/22 01:19:38;;;;;;;0.20;0.20;;;;;;;16.54;91.35;100413.78;5064645;28;20052;-70
2023/09/22 01:22:05;;;;;;;0.30;0.30;;;;;;;16.45;91.44;100412.81;5064367;28;20048;-69
2023/09/22 01:24:32;;;;;;;0.20;0.20;;;;;;;16.39;91.93;100414.00;5062656;28;20491;-69
2023/09/22 01:26:58;;;;;;;0.22;0.22;;;;;;;16.39;92.52;100414.00;5080705;28;20543;-67
2023/09/22 01:29:24;;;;;;;0.20;0.20;;;;;;;16.39;92.58;100411.25;5082794;28;20040;-68
2023/09/22 01:31:50;;;;;;;0.20;0.20;;;;;;;16.42;92.22;100413.44;5081781;28;20047;-68
2023/09/22 01:34:16;;;;;;;0.20;0.20;;;;;;;16.41;92.55;100417.31;5045119;28;20519;-66
2023/09/22 01:36:43;;;;;;;0.20;0.20;;;;;;;16.37;92.63;100413.50;5062895;28;20036;-68
2023/09/22 01:39:15;;;;;;;;;;;;;;;16.19;92.76;100396.66;5064396;28;20052;-67
2023/09/22 01:41:43;;;;;;;0.20;0.20;;;;;;;16.13;92.30;100398.66;5063088;28;19963;-67
2023/09/22 01:44:09;;;;;;;0.20;0.20;;;;;;;16.22;92.95;100420.88;5082096;28;20056;-68
2023/09/22 01:46:36;;;;;;;0.20;0.20;;;;;;;16.20;92.83;100425.88;5063814;28;20056;-69
2023/09/22 01:49:02;;;;;;;0.20;0.20;;;;;;;16.19;93.09;100427.00;5064801;28;20075;-68
2023/09/22 01:51:28;;;;;;;0.20;0.20;;;;;;;16.18;93.49;100433.63;5081575;28;20302;-68
2023/09/22 01:53:55;;;;;;;0.20;0.20;;;;;;;16.17;93.44;100426.47;5081921;28;20040;-69
2023/09/22 01:56:22;;;;;;;0.20;0.20;;;;;;;16.15;93.33;100426.75;5047155;28;20044;-69
2023/09/22 01:58:49;;;;;;;0.20;0.20;;;;;;;16.18;93.86;100430.06;5061655;28;20071;-70
2023/09/22 02:01:17;;;;;;;0.30;0.30;;;;;;;16.21;93.47;100434.97;5079563;28;20047;-69
2023/09/22 02:03:44;;;;;;;0.20;0.20;;;;;;;16.23;93.31;100435.50;5081852;28;20060;-69
2023/09/22 02:06:11;;;;;;;0.20;0.20;;;;;;;16.21;93.70;100426.72;5063453;28;20075;-67
2023/09/22 02:08:37;;;;;;;0.20;0.20;;;;;;;16.13;93.30;100417.16;5083356;28;20093;-69
2023/09/22 02:11:03;;;;;;;0.20;0.20;;;;;;;16.22;93.45;100437.41;5082640;28;20048;-70
2023/09/22 02:13:31;;;;;;;0.20;0.20;;;;;;;16.21;93.63;100432.22;5035158;28;20052;-70
2023/09/22 02:15:58;;;;;;;0.20;0.20;;;;;;;16.19;93.46;100424.22;5057005;28;20052;-69
2023/09/22 02:18:24;;;;;;;0.20;0.20;;;;;;;16.26;93.43;100413.66;5063790;28;20519;-68
2023/09/22 02:20:52;;;;;;;0.20;0.20;;;;;;;16.30;93.17;100422.13;5081063;28;20051;-68
2023/09/22 02:23:19;;;;;;;;;;;;;;;16.25;93.54;100433.25;5063201;28;20390;-69
2023/09/22 02:25:45;;;;;;;;;;;;;;;16.18;93.34;100432.81;5045933;28;19924;-67
2023/09/22 02:28:11;;;;;;;0.20;0.20;;;;;;;16.13;93.21;100440.03;5082445;28;19935;-68
2023/09/22 02:30:39;;;;;;;0.20;0.20;;;;;;;16.09;93.53;100436.22;5083895;28;20048;-69
2023/09/22 02:33:05;;;;;;;0.20;0.20;;;;;;;16.02;94.29;100438.53;5080449;28;20051;-69
2023/09/22 02:35:31;;;;;;;0.20;0.20;;;;;;;15.95;94.77;100441.66;5081230;28;20043;-69
2023/09/22 02:37:58;;;;;;;0.20;0.20;;;;;;;15.89;95.21;100442.81;5049283;28;20047;-67
2023/09/22 02:40:24;;;;;;;0.20;0.20;;;;;;;15.83;95.53;100441.22;5063344;28;20333;-68
2023/09/22 02:42:50;;;;;;;0.20;0.20;;;;;;;15.81;96.25;100444.28;5063325;28;20097;-69
2023/09/22 02:45:17;;;;;;;0.20;0.20;;;;;;;15.81;96.24;100447.03;5065310;28;20071;-69
2023/09/22 02:47:44;;;;;;;0.20;0.20;;;;;;;15.81;96.57;100451.75;5084717;28;20044;-68
2023/09/22 02:50:15;;;;;;;0.20;0.20;;;;;;;15.79;96.83;100443.75;5083386;28;20126;-69
2023/09/22 02:52:42;;;;;;;0.20;0.20;;;;;;;15.78;96.89;100444.06;5082986;28;20051;-69
2023/09/22 02:55:10;;;;;;;0.20;0.20;;;;;;;15.76;97.25;100451.78;5066013;28;20044;-67
2023/09/22 02:57:37;;;;;;;0.30;0.30;;;;;;;15.71;97.49;100444.41;5064338;28;20044;-69
2023/09/22 03:00:20;;;;;;;0.20;0.20;;;;;;;15.69;98.10;100449.41;5085163;28;20047;-69
2023/09/22 03:02:48;;;;;;;0.20;0.20;;;;;;;15.68;98.15;100454.09;5065943;28;20186;-69
2023/09/22 03:05:16;;;;;;;0.20;0.20;;;;;;;15.70;98.30;100451.84;5084690;28;20044;-69
2023/09/22 03:07:44;;;;;;;0.20;0.20;;;;;;;15.71;97.72;100461.75;5027104;28;20142;-69
2023/09/22 03:10:11;;;;;;;0.20;0.20;;;;;;;15.70;97.71;100460.13;5064255;28;20085;-68
2023/09/22 03:12:38;;;;;;;0.20;0.20;;;;;;;15.69;97.49;100461.22;5050076;28;20059;-69
2023/09/22 03:15:09;;;;;;;0.20;0.20;;;;;;;15.69;97.62;100466.75;5084195;28;20367;-68
2023/09/22 03:17:36;;;;;;;0.30;0.30;;;;;;;15.71;97.15;100459.00;5049962;28;20052;-69
2023/09/22 03:20:12;;;;;;;0.20;0.20;;;;;;;15.71;96.90;100463.72;5067421;28;20583;-68
2023/09/22 03:22:38;;;;;;;0.20;0.20;;;;;;;15.67;96.72;100466.22;5048802;28;20487;-69
2023/09/22 03:25:06;;;;;;;0.20;0.20;;;;;;;15.55;97.24;100450.09;5083269;28;20158;-70
2023/09/22 03:27:36;;;;;;;0.20;0.20;;;;;;;15.64;96.82;100465.97;5050546;28;20047;-70
2023/09/22 03:30:06;;;;;;;0.30;0.30;;;;;;;15.61;97.13;100470.16;5065425;28;20044;-70
2023/09/22 03:32:32;;;;;;;0.20;0.20;;;;;;;15.58;97.25;100471.56;5064950;28;20135;-68
2023/09/22 03:34:59;;;;;;;0.30;0.30;;;;;;;15.59;97.44;100473.19;5066713;28;20052;-69
2023/09/22 03:37:27;;;;;;;0.20;0.20;;;;;;;15.58;97.43;100471.56;5068264;28;20086;-69
2023/09/22 03:39:53;;;;;;;0.25;0.25;;;;;;;15.58;97.52;100474.31;5065061;28;20054;-68
2023/09/22 03:42:20;;;;;;;;;;;;;;;15.57;97.30;100475.44;5046088;28;20105;-68
2023/09/22 03:44:47;;;;;;;0.22;0.22;;;;;;;15.57;97.27;100480.09;5066622;28;20318;-67
2023/09/22 03:47:13;;;;;;;0.20;0.20;;;;;;;15.56;97.28;100476.53;5064600;28;20051;-66
2023/09/22 03:49:39;;;;;;;0.30;0.30;;;;;;;15.58;97.20;100485.34;5065243;28;20472;-68
2023/09/22 03:52:06;;;;;;;0.20;0.20;;;;;;;15.59;97.45;100483.38;5066340;28;20256;-69
2023/09/22 03:54:34;;;;;;;0.20;0.20;;;;;;;15.62;97.44;100479.22;5083846;28;20056;-69
2023/09/22 03:57:00;;;;;;;0.30;0.30;;;;;;;15.64;97.25;100480.59;5083920;28;20067;-69
2023/09/22 03:59:27;;;;;;;0.20;0.20;;;;;;;15.69;97.25;100490.75;5067696;28;20048;-68
2023/09/22 04:01:54;;;;;;;0.30;0.30;;;;;;;15.70;96.61;100490.44;5064847;28;20542;-68
2023/09/22 04:04:20;;;;;;;0.30;0.30;;;;;;;15.73;96.71;100481.56;5048581;28;20063;-67
2023/09/22 04:06:46;;;;;;;0.30;0.30;;;;;;;15.77;96.37;100489.28;5063783;28;20051;-68
2023/09/22 04:09:12;;;;;;;0.30;0.30;;;;;;;15.78;96.05;100491.72;5084285;28;20461;-69
2023/09/22 04:11:40;;;;;;;0.20;0.20;;;;;;;15.79;96.15;100489.81;5082038;28;20105;-68
2023/09/22 04:14:07;;;;;;;0.20;0.20;;;;;;;15.84;95.85;100487.81;5084303;28;20051;-68
2023/09/22 04:16:33;;;;;;;0.20;0.20;;;;;;;15.90;95.22;100496.84;5083067;28;20135;-68
2023/09/22 04:18:59;;;;;;;0.20;0.20;;;;;;;15.94;94.80;100486.91;5083669;28;20574;-70
2023/09/22 04:21:25;;;;;;;0.30;0.30;;;;;;;16.00;94.41;100494.00;5064153;28;20151;-68
2023/09/22 04:23:57;;;;;;;0.20;0.20;;;;;;;16.07;93.97;100496.38;5064783;28;20133;-68
2023/09/22 04:26:29;;;;;;;0.20;0.20;;;;;;;16.14;94.15;100494.06;5080820;28;20055;-68
2023/09/22 04:28:59;;;;;;;0.20;0.20;;;;;;;15.99;93.28;100461.19;5060197;28;20097;-68
2023/09/22 04:31:25;;;;;;;0.30;0.30;;;;;;;16.23;93.01;100501.72;5080767;28;20048;-68
2023/09/22 04:33:54;;;;;;;0.30;0.30;;;;;;;16.25;92.95;100499.47;5063143;28;20067;-68
2023/09/22 04:36:22;;;;;;;0.25;0.25;;;;;;;16.31;92.81;100503.78;5064077;28;20090;-68
2023/09/22 04:38:49;;;;;;;0.30;0.30;;;;;;;16.37;92.22;100502.63;5084028;28;20044;-69
2023/09/22 04:41:18;;;;;;;;;;;;;;;16.27;92.02;100484.28;5082948;28;20040;-69
2023/09/22 04:43:44;;;;;;;0.22;0.22;;;;;;;16.44;91.80;100496.75;5084126;28;19930;-69
2023/09/22 04:46:15;;;;;;;0.30;0.30;;;;;;;16.54;91.20;100512.34;5086259;28;20479;-69
2023/09/22 04:48:42;;;;;;;0.30;0.30;;;;;;;16.61;91.01;100512.78;5081107;28;20036;-68
2023/09/22 04:51:08;;;;;;;0.30;0.30;;;;;;;16.67;90.38;100508.00;5082674;28;20043;-70
2023/09/22 04:53:34;;;;;;;0.20;0.20;;;;;;;16.76;90.26;100516.44;5081276;28;20043;-70
2023/09/22 04:56:03;;;;;;;0.30;0.30;;;;;;;16.76;89.50;100511.72;5074951;28;20040;-70
2023/09/22 04:58:29;;;;;;;0.20;0.20;;;;;;;16.82;89.53;100515.25;5060885;28;20490;-69
2023/09/22 05:00:57;;;;;;;0.20;0.20;;;;;;;16.80;89.36;100503.69;5065618;28;20044;-69
2023/09/22 05:03:25;;;;;;;0.30;0.30;;;;;;;16.95;88.92;100513.66;5063247;28;20043;-70
2023/09/22 05:05:52;;;;;;;0.30;0.30;;;;;;;17.00;88.83;100508.91;5064251;28;20052;-69
2023/09/22 05:08:18;;;;;;;0.30;0.30;;;;;;;17.09;88.00;100513.72;5062348;28;20050;-69
2023/09/22 05:10:46;;;;;;;0.30;0.30;;;;;;;17.11;87.69;100517.84;5078522;28;20048;-69
2023/09/22 05:13:16;;;;;;;0.30;0.30;;;;;;;17.18;87.55;100516.66;5055218;28;20040;-69
2023/09/22 05:15:43;;;;;;;0.30;0.30;;;;;;;17.30;86.75;100516.97;5054066;28;20410;-69
2023/09/22 05:18:13;;;;;;;;;;;;;;;17.35;86.08;100521.59;5061854;28;20502;-69
2023/09/22 05:20:41;;;;;;;0.30;0.30;;;;;;;17.33;84.99;100519.16;5052676;28;19930;-68
2023/09/22 05:23:08;;;;;;;0.30;0.30;;;;;;;17.39;85.18;100525.38;5082436;28;20048;-69
2023/09/22 05:25:38;;;;;;;;;;;;;;;17.48;85.19;100519.97;5085692;28;20067;-70
2023/09/22 05:28:05;;;;;;;0.30;0.30;;;;;;;17.47;84.01;100527.47;5084660;28;20392;-70
2023/09/22 05:30:31;;;;;;;0.20;0.20;;;;;;;17.36;84.40;100529.59;5065069;28;20078;-70
2023/09/22 05:32:57;;;;;;;0.30;0.30;;;;;;;17.24;84.58;100520.97;5084846;28;20048;-69
2023/09/22 05:35:24;;;;;;;0.20;0.20;;;;;;;17.31;84.83;100537.16;5080266;28;20059;-70
2023/09/22 05:37:52;;;;;;;0.30;0.30;;;;;;;17.30;84.86;100539.06;5075269;28;20168;-68
2023/09/22 05:40:19;;;;;;;0.30;0.30;;;;;;;17.35;84.96;100540.94;5074711;28;20052;-69
2023/09/22 05:42:45;;;;;;;0.30;0.30;;;;;;;17.41;84.55;100543.31;5049764;28;20154;-70
2023/09/22 05:45:12;;;;;;;0.30;0.30;;;;;;;17.48;84.08;100545.69;5073811;28;20067;-69
2023/09/22 05:47:38;;;;;;;0.30;0.30;;;;;;;17.52;83.91;100548.69;5058067;28;20044;-69
2023/09/22 05:50:05;;;;;;;0.30;0.30;;;;;;;17.61;82.91;100552.38;5079289;28;20072;-69
2023/09/22 05:52:32;;;;;;;0.30;0.30;;;;;;;17.79;82.66;100549.81;5081518;28;20040;-70
2023/09/22 05:55:00;;;;;;;0.30;0.30;;;;;;;18.12;81.53;100544.25;5081009;28;20055;-68
2023/09/22 05:57:26;;;;;;;0.30;0.30;;;;;;;18.46;79.64;100548.53;5083011;28;20032;-69
2023/09/22 05:59:53;;;;;;;0.30;0.30;;;;;;;18.60;78.94;100550.47;5084494;28;20044;-71
2023/09/22 06:02:19;;;;;;;;;;;;;;;18.63;78.33;100561.72;5066736;28;20048;-71
2023/09/22 06:04:47;;;;;;;0.30;0.30;;;;;;;18.58;78.10;100564.59;5081879;28;20035;-70
2023/09/22 06:07:14;;;;;;;0.30;0.30;;;;;;;18.57;77.71;100562.97;5084190;28;20530;-69
2023/09/22 06:09:40;;;;;;;0.40;0.40;;;;;;;18.67;77.61;100559.16;5064896;28;20044;-68
2023/09/22 06:12:08;;;;;;;0.30;0.30;;;;;;;18.85;76.48;100557.38;5079568;28;20044;-68
2023/09/22 06:14:34;;;;;;;0.30;0.30;;;;;;;19.14;75.13;100572.78;5083598;28;20048;-68
2023/09/22 06:17:00;;;;;;;0.30;0.30;;;;;;;19.36;74.33;100569.22;5062251;28;20079;-69
2023/09/22 06:19:26;;;;;;;0.30;0.30;;;;;;;19.65;73.31;100562.34;5081098;28;20432;-69
2023/09/22 06:21:52;;;;;;;0.30;0.30;;;;;;;19.78;71.59;100568.13;5085326;28;20040;-69
2023/09/22 06:24:20;;;;;;;0.30;0.30;;;;;;;19.86;71.44;100569.31;5086069;28;20101;-70
2023/09/22 06:26:46;;;;;;;0.40;0.40;;;;;;;20.07;70.42;100564.03;5084825;28;20047;-70
2023/09/22 06:29:14;;;;;;;0.30;0.30;;;;;;;20.14;70.07;100571.91;5089119;28;20074;-68
2023/09/22 06:31:40;;;;;;;0.30;0.30;;;;;;;20.32;69.47;100570.00;5089211;28;20585;-69
2023/09/22 06:34:07;;;;;;;0.30;0.30;;;;;;;20.50;68.57;100568.91;5070338;28;20036;-69
2023/09/22 06:36:34;;;;;;;0.40;0.40;;;;;;;20.66;67.71;100574.00;5068312;28;21585;-70
2023/09/22 06:39:05;;;;;;;0.30;0.30;;;;;;;20.66;67.21;100580.34;5087870;28;20044;-69
2023/09/22 06:41:34;;;;;;;0.30;0.30;;;;;;;20.75;67.14;100576.78;5071275;28;20089;-68
2023/09/22 06:44:02;;;;;;;0.30;0.30;;;;;;;20.92;66.28;100578.81;5069087;28;20040;-69
2023/09/22 06:46:35;;;;;;;0.40;0.40;;;;;;;21.07;65.88;100569.97;5086197;28;20056;-69
2023/09/22 06:49:05;;;;;;;0.30;0.30;;;;;;;21.44;64.40;100577.13;5068763;28;20116;-68
2023/09/22 06:51:31;;;;;;;0.32;0.32;;;;;;;21.55;63.81;100570.06;5086031;28;20071;-69
2023/09/22 06:53:57;;;;;;;0.40;0.40;;;;;;;21.76;62.38;100575.75;5066823;28;20485;-70
2023/09/22 06:56:24;;;;;;;0.30;0.30;;;;;;;21.83;62.37;100577.22;5069431;28;20063;-69
2023/09/22 06:58:51;;;;;;;0.30;0.30;;;;;;;22.01;61.95;100573.22;5088143;28;20048;-69
2023/09/22 07:01:17;;;;;;;0.30;0.30;;;;;;;22.27;61.40;100577.84;5081280;28;20523;-70
2023/09/22 07:03:45;;;;;;;0.40;0.40;;;;;;;22.57;60.43;100575.09;5076480;28;20488;-70
2023/09/22 07:06:14;;;;;;;0.30;0.30;;;;;;;22.85;59.37;100574.53;5062532;28;20507;-68
2023/09/22 07:08:43;;;;;;;0.30;0.30;;;;;;;22.99;59.06;100579.88;5042055;28;20048;-69
2023/09/22 07:11:12;;;;;;;0.40;0.40;;;;;;;23.27;58.13;100587.69;5087292;28;20036;-70
2023/09/22 07:13:40;;;;;;;0.40;0.40;;;;;;;23.46;57.10;100578.00;5068007;28;20135;-70
2023/09/22 07:16:07;;;;;;;0.40;0.40;;;;;;;23.43;56.22;100592.63;5090359;28;20048;-70
2023/09/22 07:18:33;;;;;;;0.40;0.40;;;;;;;23.41;56.43;100589.34;5087656;28;20044;-70
2023/09/22 07:21:01;;;;;;;0.40;0.40;;;;;;;23.64;55.75;100592.56;5084959;28;20159;-70
2023/09/22 07:23:30;;;;;;;0.40;0.40;;;;;;;23.69;55.21;100588.75;5086214;28;20460;-69
2023/09/22 07:25:58;;;;;;;0.43;0.43;;;;;;;23.85;54.49;100586.09;5032184;28;20043;-70
2023/09/22 07:28:25;;;;;;;0.40;0.40;;;;;;;23.91;53.08;100595.88;5066296;28;20040;-69
2023/09/22 07:30:52;;;;;;;0.30;0.30;;;;;;;23.81;53.53;100597.16;5083945;28;20044;-70
2023/09/22 07:33:19;;;;;;;0.30;0.30;;;;;;;24.05;51.88;100596.41;5087511;28;20044;-70
2023/09/22 07:35:48;;;;;;;0.40;0.40;;;;;;;24.34;51.15;100591.75;5087501;28;20036;-70
2023/09/22 07:38:18;;;;;;;0.40;0.40;;;;;;;24.52;49.39;100602.69;5037035;28;20598;-70
2023/09/22 07:40:44;;;;;;;0.40;0.40;;;;;;;24.47;48.16;100592.53;5086284;28;20047;-72
2023/09/22 07:43:11;;;;;;;0.40;0.40;;;;;;;24.45;47.55;100610.84;5069023;28;20671;-70
2023/09/22 07:45:39;;;;;;;0.30;0.30;;;;;;;24.57;47.51;100599.63;5051790;28;20150;-70
2023/09/22 07:48:05;;;;;;;0.40;0.40;;;;;;;24.75;46.21;100603.00;5086906;28;20063;-69
2023/09/22 07:50:34;;;;;;;0.40;0.40;;;;;;;24.72;46.53;100602.88;5084185;28;20048;-69
2023/09/22 07:53:01;;;;;;;0.40;0.40;;;;;;;24.74;45.93;100606.13;5066888;28;20050;-70
2023/09/22 07:55:28;;;;;;;0.40;0.40;;;;;;;24.76;46.14;100613.03;5086434;28;20044;-70
2023/09/22 07:57:55;;;;;;;0.40;0.40;;;;;;;24.86;45.73;100608.13;5084999;28;20139;-69
2023/09/22 08:00:21;;;;;;;0.40;0.40;;;;;;;24.96;44.73;100609.63;5088596;28;20052;-69
2023/09/22 08:02:52;;;;;;;0.40;0.40;;;;;;;24.96;44.76;100604.03;5084086;28;20048;-71
2023/09/22 08:05:18;;;;;;;0.40;0.40;;;;;;;25.05;44.78;100601.88;5087267;28;20301;-71
2023/09/22 08:07:45;;;;;;;0.40;0.40;;;;;;;25.42;43.59;100621.34;5085342;28;20105;-69
2023/09/22 08:10:12;;;;;;;0.40;0.40;;;;;;;25.56;42.78;100615.34;5066439;28;20510;-70
2023/09/22 08:12:41;;;;;;;;;;;;;;;25.67;43.26;100612.84;5065616;28;20074;-70
2023/09/22 08:15:08;;;;;;;0.50;0.50;;;;;;;25.75;42.57;100609.06;5068306;28;19931;-70
2023/09/22 08:17:34;;;;;;;0.40;0.40;;;;;;;25.85;41.93;100613.34;5084862;28;20058;-70
2023/09/22 08:20:01;;;;;;;0.47;0.47;;;;;;;25.97;42.17;100615.22;5085353;28;20056;-71
2023/09/22 08:22:31;;;;;;;0.50;0.50;;;;;;;26.48;41.23;100613.72;5066435;28;20044;-70
2023/09/22 08:24:58;;;;;;;0.50;0.50;;;;;;;26.83;39.81;100612.91;5069181;28;20070;-71
2023/09/22 08:27:24;;;;;;;0.40;0.40;;;;;;;27.10;39.69;100610.31;5085978;28;20130;-71
2023/09/22 08:29:51;;;;;;;0.40;0.40;;;;;;;27.43;38.06;100611.75;5065767;28;20147;-71
2023/09/22 08:32:18;;;;;;;0.50;0.50;;;;;;;27.25;38.21;100614.19;5086297;28;20035;-69
2023/09/22 08:34:46;;;;;;;;;;;;;;;27.28;39.04;100621.06;5064761;28;20052;-70
2023/09/22 08:37:13;;;;;;;0.50;0.50;;;;;;;27.25;37.59;100616.22;5050049;28;19924;-70
2023/09/22 08:39:39;;;;;;;0.47;0.47;;;;;;;27.31;37.86;100609.09;5068141;28;20259;-70
2023/09/22 08:42:06;;;;;;;0.40;0.40;;;;;;;27.60;37.07;100607.69;5067641;28;20097;-71
2023/09/22 08:44:33;;;;;;;0.50;0.50;;;;;;;27.67;36.19;100614.63;5087657;28;20464;-70
2023/09/22 08:47:02;;;;;;;0.50;0.50;;;;;;;27.46;36.82;100613.00;5087266;28;20105;-70
2023/09/22 08:49:29;;;;;;;0.50;0.50;;;;;;;27.67;35.73;100620.25;5084895;28;20052;-70
2023/09/22 08:51:59;;;;;;;0.40;0.40;;;;;;;27.69;35.07;100606.66;5081829;28;20044;-70
2023/09/22 08:54:25;;;;;;;0.50;0.50;;;;;;;27.56;35.20;100614.44;5067786;28;20072;-70
2023/09/22 08:56:51;;;;;;;1.00;0.50;;;;;;;27.45;35.30;100623.44;5086489;28;20044;-70
2023/09/22 08:59:17;;;;;;;0.50;0.50;;;;;;;27.30;34.11;100608.28;5068320;28;20722;-70
2023/09/22 09:01:44;;;;;;;0.55;0.55;;;;;;;27.29;34.47;100609.47;5067021;28;20082;-69
2023/09/22 09:04:31;;;;;;;0.50;0.50;;;;;;;27.32;34.39;100617.16;5083557;28;20058;-71
2023/09/22 09:06:57;;;;;;;0.50;0.50;;;;;;;27.37;34.72;100616.03;5065831;28;20090;-71
2023/09/22 09:09:23;;;;;;;0.60;0.60;;;;;;;27.29;33.66;100626.31;5076849;28;20143;-70
2023/09/22 09:11:58;;;;;;;0.80;0.60;;;;;;;27.12;33.97;100623.94;5063576;28;20032;-70
2023/09/22 09:14:28;;;;;;;0.60;0.60;;;;;;;27.19;33.22;100612.88;5044305;28;20048;-69
2023/09/22 09:16:56;;;;;;;0.70;0.70;;;;;;;27.11;33.71;100619.50;5080319;28;20138;-70
2023/09/22 09:19:22;;;;;;;0.60;0.60;;;;;;;27.25;33.09;100617.00;5083315;28;20039;-72
2023/09/22 09:22:09;;;;;;;0.60;0.60;;;;;;;27.61;32.36;100614.13;5085495;28;20044;-69
2023/09/22 09:24:35;;;;;;;0.60;0.60;;;;;;;27.78;31.52;100610.00;5085808;28;20052;-71
2023/09/22 09:27:14;;;;;;;0.60;0.60;;;;;;;27.82;31.58;100608.09;5084845;28;20051;-69
2023/09/22 09:29:40;;;;;;;0.60;0.60;;;;;;;28.07;30.77;100606.91;5080877;28;20051;-69
2023/09/22 09:32:08;;;;;;;0.60;0.60;;;;;;;28.18;30.20;100607.94;5084247;28;20518;-71
2023/09/22 09:34:39;;;;;;;0.63;0.63;;;;;;;28.15;30.50;100603.84;5085310;28;20048;-70
2023/09/22 09:37:14;;;;;;;0.60;0.60;;;;;;;28.07;29.54;100610.50;5083725;28;20065;-70
2023/09/22 09:39:45;;;;;;;0.70;0.70;;;;;;;27.81;29.36;100609.28;5068190;28;20586;-70
2023/09/22 09:42:15;;;;;;;0.65;0.65;;;;;;;27.89;29.28;100604.59;5082137;28;20043;-70
2023/09/22 09:44:47;;;;;;;0.60;0.60;;;;;;;28.24;28.37;100614.03;5084493;28;20130;-70
2023/09/22 09:47:21;;;;;;;0.60;0.60;;;;;;;28.76;27.26;100607.97;5084332;28;20143;-69
2023/09/22 09:49:51;;;;;;;0.60;0.60;;;;;;;29.09;26.70;100603.63;5082775;28;20036;-69
2023/09/22 09:52:24;;;;;;;0.60;0.60;;;;;;;29.08;26.28;100616.06;5081972;28;20130;-69
2023/09/22 09:55:02;;;;;;;0.70;0.70;;;;;;;29.26;26.30;100602.19;5086249;28;20484;-71
2023/09/22 09:57:32;;;;;;;0.60;0.60;;;;;;;29.73;25.33;100602.75;5035653;28;20396;-70
2023/09/22 09:59:59;;;;;;;0.60;0.60;;;;;;;29.31;25.63;100601.88;5058341;28;20044;-70
2023/09/22 10:02:27;;;;;;;0.60;0.60;;;;;;;29.56;25.56;100593.72;5087519;28;20075;-69
2023/09/22 10:04:56;;;;;;;0.60;0.60;;;;;;;30.04;25.31;100597.00;5086431;28;20052;-68
2023/09/22 10:07:24;;;;;;;0.70;0.70;;;;;;;30.31;24.89;100597.63;5066048;28;20040;-69
2023/09/22 10:09:51;;;;;;;0.60;0.60;;;;;;;30.65;23.78;100588.19;5069491;28;20414;-69
2023/09/22 10:12:18;;;;;;;0.68;0.68;;;;;;;30.92;23.42;100600.03;5089723;28;20139;-70
2023/09/22 10:14:46;;;;;;;0.60;0.60;;;;;;;31.17;22.75;100590.03;5068840;28;20040;-71
2023/09/22 10:17:21;;;;;;;0.60;0.60;;;;;;;30.88;23.32;100596.38;5087766;28;20054;-71
2023/09/22 10:19:48;;;;;;;0.60;0.60;;;;;;;31.02;23.56;100589.16;5089132;28;20403;-70
2023/09/22 10:22:14;;;;;;;0.60;0.60;;;;;;;31.12;22.72;100588.41;5055800;28;20050;-70
2023/09/22 10:24:42;;;;;;;0.60;0.60;;;;;;;31.29;22.20;100597.38;5090107;28;20074;-69
2023/09/22 10:27:14;;;;;;;0.60;0.60;;;;;;;31.13;22.45;100598.50;5089481;28;20480;-69
2023/09/22 10:29:51;;;;;;;0.60;0.60;;;;;;;30.84;22.55;100592.72;5084096;28;20048;-70
2023/09/22 10:32:20;;;;;;;0.60;0.60;;;;;;;30.90;22.39;100585.47;5058917;28;20062;-70
2023/09/22 10:34:51;;;;;;;0.60;0.60;;;;;;;31.45;21.87;100585.69;5065874;28;20526;-70
2023/09/22 10:37:20;;;;;;;0.60;0.60;;;;;;;32.03;21.24;100582.97;5070988;28;20115;-70
2023/09/22 10:39:58;;;;;;;0.60;0.60;;;;;;;32.25;20.83;100586.59;5088250;28;20036;-69
2023/09/22 10:42:26;;;;;;;0.70;0.70;;;;;;;31.74;20.94;100592.22;5089689;28;20483;-70
2023/09/22 10:45:01;;;;;;;0.80;0.80;;;;;;;31.89;20.69;100576.09;5089090;28;20052;-70
2023/09/22 10:47:37;;;;;;;0.80;0.80;;;;;;;31.31;21.21;100590.13;5067903;28;20056;-70
2023/09/22 10:50:26;;;;;;;0.80;0.80;;;;;;;31.63;20.97;100588.56;5068205;28;20040;-69
2023/09/22 10:52:54;;;;;;;0.90;0.90;;;;;;;31.79;20.59;100569.22;5066422;28;20470;-70
2023/09/22 10:55:31;;;;;;;0.95;0.95;;;;;;;32.26;20.50;100585.38;5087915;28;20047;-70
2023/09/22 10:57:59;;;;;;;1.00;1.00;;;;;;;32.34;20.21;100575.69;5088298;28;20040;-69
2023/09/22 11:00:26;;;;;;;1.00;1.00;;;;;;;32.08;20.44;100574.06;5085489;28;20048;-69
2023/09/22 11:02:53;;;;;;;1.00;1.00;;;;;;;31.93;20.57;100585.41;5080560;28;20040;-70
2023/09/22 11:05:19;;;;;;;1.00;1.00;;;;;;;31.92;20.76;100588.63;5066476;28;20044;-69
2023/09/22 11:07:46;;;;;;;1.10;1.10;;;;;;;32.41;20.40;100585.38;5086844;28;20498;-69
2023/09/22 11:10:19;;;;;;;1.10;1.10;;;;;;;32.84;19.97;100576.78;5087433;28;20055;-70
2023/09/22 11:12:51;;;;;;;1.10;1.10;;;;;;;32.88;19.45;100597.38;5083688;28;20063;-70
2023/09/22 11:15:18;;;;;;;1.10;1.10;;;;;;;32.67;19.63;100576.41;5067896;28;20449;-70
2023/09/22 11:17:48;;;;;;;1.10;1.10;;;;;;;32.29;19.99;100597.91;5088456;28;20040;-68
2023/09/22 11:20:22;;;;;;;1.27;1.20;;;;;;;32.26;19.91;100571.22;5069779;28;20226;-71
2023/09/22 11:22:50;;;;;;;1.23;1.20;;;;;;;32.25;20.44;100573.25;5089185;28;20043;-69
2023/09/22 11:25:16;;;;;;;1.10;1.10;;;;;;;32.47;19.56;100570.41;5069767;28;20051;-70
2023/09/22 11:27:44;;;;;;;1.10;1.10;;;;;;;32.90;19.68;100580.81;5088263;28;20147;-70
2023/09/22 11:30:14;;;;;;;1.30;1.20;;;;;;;32.81;19.30;100569.09;5067561;28;20048;-70